Time;durP1;ratioP1;P1;durP2;ratioP2;P2;SDS_P1;SDS_P2;PMS_P1;PMS_P2;Temp;Humidity;BMP_temperature;BMP_pressure;BME280_temperature;BME280_humidity;BME280_pressure;Samples;Min_cycle;Max_cycle;Signal;HPM_P1;HPM_P2
2022/08/20 00:00:30;;;;;;;15.20;7.57;;;;;;;21.15;97.61;100618.94;5049924;28;20033;-68
2022/08/20 00:03:07;;;;;;;17.42;8.20;;;;;;;21.10;97.38;100622.94;5052322;28;20056;-68
2022/08/20 00:05:37;;;;;;;13.45;7.18;;;;;;;21.15;97.43;100618.94;5050134;28;20120;-68
2022/08/20 00:08:03;;;;;;;17.27;7.57;;;;;;;21.18;97.22;100623.53;5043034;28;20021;-68
2022/08/20 00:10:32;;;;;;;13.73;7.43;;;;;;;21.11;97.26;100618.25;5039274;28;20033;-68
2022/08/20 00:12:58;;;;;;;16.80;7.20;;;;;;;21.11;97.71;100616.28;5037245;28;20033;-67
2022/08/20 00:15:28;;;;;;;14.02;6.57;;;;;;;21.10;97.74;100617.47;5046150;28;20040;-67
2022/08/20 00:17:55;;;;;;;12.70;6.80;;;;;;;21.14;97.50;100623.63;5044691;28;20393;-68
2022/08/20 00:20:23;;;;;;;15.73;7.22;;;;;;;21.15;97.66;100621.66;5045606;28;20047;-67
2022/08/20 00:22:49;;;;;;;15.80;7.35;;;;;;;21.18;97.93;100631.75;5044900;28;20449;-68
2022/08/20 00:25:16;;;;;;;14.38;7.72;;;;;;;21.22;97.82;100633.22;5033704;28;20025;-68
2022/08/20 00:27:41;;;;;;;14.15;7.10;;;;;;;21.22;98.16;100637.94;5046365;28;20029;-67
2022/08/20 00:30:09;;;;;;;14.95;6.60;;;;;;;21.24;97.56;100646.50;5049732;28;20496;-68
2022/08/20 00:32:45;;;;;;;15.50;6.97;;;;;;;21.23;98.01;100640.25;5033594;28;20025;-67
2022/08/20 00:35:13;;;;;;;17.08;6.75;;;;;;;21.27;98.03;100648.41;5051877;28;20053;-68
2022/08/20 00:37:38;;;;;;;13.82;6.50;;;;;;;21.32;98.26;100650.63;5050510;28;20052;-67
2022/08/20 00:40:06;;;;;;;13.32;6.45;;;;;;;21.33;98.28;100643.94;5050834;28;20024;-68
2022/08/20 00:42:40;;;;;;;16.67;6.57;;;;;;;21.34;98.41;100638.03;5051146;28;20422;-68
2022/08/20 00:45:06;;;;;;;12.63;6.53;;;;;;;21.34;98.40;100629.81;5048025;28;20216;-67
2022/08/20 00:47:32;;;;;;;14.18;6.00;;;;;;;21.39;98.02;100637.50;5050269;28;20401;-68
2022/08/20 00:49:58;;;;;;;12.73;6.10;;;;;;;21.42;97.64;100635.88;5050986;28;20040;-68
2022/08/20 00:52:23;;;;;;;12.52;5.97;;;;;;;21.45;97.61;100635.03;5051178;28;20036;-68
2022/08/20 00:54:53;;;;;;;11.60;5.38;;;;;;;21.56;96.87;100638.28;5042494;28;20029;-68
2022/08/20 00:57:33;;;;;;;12.03;5.27;;;;;;;21.54;96.92;100630.47;5049871;28;20067;-68
2022/08/20 01:00:01;;;;;;;11.52;6.00;;;;;;;21.53;96.62;100631.69;5050230;28;20676;-68
2022/08/20 01:02:29;;;;;;;9.70;4.97;;;;;;;21.60;96.24;100632.72;5038424;28;20040;-67
2022/08/20 01:04:55;;;;;;;12.57;6.25;;;;;;;21.58;95.48;100642.13;5050016;28;20114;-68
2022/08/20 01:07:33;;;;;;;11.57;6.07;;;;;;;21.56;96.14;100635.53;5049492;28;20505;-67
2022/08/20 01:10:06;;;;;;;12.52;5.03;;;;;;;21.61;95.73;100636.97;5047009;28;20046;-68
2022/08/20 01:12:32;;;;;;;10.23;5.18;;;;;;;21.60;95.58;100633.50;5050367;28;20040;-66
2022/08/20 01:15:01;;;;;;;12.30;5.45;;;;;;;21.60;95.66;100636.22;5050606;28;20039;-66
2022/08/20 01:17:31;;;;;;;10.27;5.72;;;;;;;21.60;95.46;100638.19;5048283;28;20080;-66
2022/08/20 01:20:05;;;;;;;11.68;5.32;;;;;;;21.60;95.52;100638.19;5041860;28;20506;-66
2022/08/20 01:25:59;;;;;;;8.85;4.82;;;;;;;21.59;95.63;100642.91;5049963;28;20424;-66
2022/08/20 01:28:31;;;;;;;12.55;5.40;;;;;;;21.62;94.67;100644.81;5031639;28;20064;-67
2022/08/20 01:30:57;;;;;;;11.52;5.03;;;;;;;21.63;94.39;100643.59;5044261;28;20449;-66
2022/08/20 01:33:23;;;;;;;11.70;5.68;;;;;;;21.63;93.76;100643.59;5049832;28;20076;-67
2022/08/20 01:35:51;;;;;;;10.00;5.15;;;;;;;21.63;93.58;100643.59;5049548;28;20075;-67
2022/08/20 01:38:16;;;;;;;9.45;5.20;;;;;;;21.59;94.33;100640.16;5044507;28;20062;-67
2022/08/20 01:41:20;;;;;;;13.65;5.70;;;;;;;21.60;94.10;100655.41;5031797;28;20029;-67
2022/08/20 01:43:47;;;;;;;10.82;5.07;;;;;;;21.66;93.97;100658.41;5027669;28;20037;-67
2022/08/20 01:46:13;;;;;;;7.88;4.55;;;;;;;21.60;94.24;100660.91;5045920;28;20424;-67
2022/08/20 01:48:41;;;;;;;10.57;4.88;;;;;;;21.54;93.80;100657.13;5041790;28;20037;-68
2022/08/20 01:51:12;;;;;;;7.57;4.50;;;;;;;21.45;94.48;100668.69;5048514;28;20021;-67
2022/08/20 01:53:41;;;;;;;8.98;4.63;;;;;;;21.53;94.60;100664.59;5050105;28;20441;-66
2022/08/20 01:56:10;;;;;;;9.65;5.00;;;;;;;21.54;95.13;100665.34;5044430;28;20123;-66
2022/08/20 01:58:40;;;;;;;10.55;4.80;;;;;;;21.56;94.53;100674.69;5039429;28;20036;-66
2022/08/20 02:01:06;;;;;;;9.82;4.75;;;;;;;21.48;94.00;100670.59;5050010;28;20071;-66
2022/08/20 02:03:32;;;;;;;7.75;4.05;;;;;;;21.45;94.87;100676.13;5048006;28;20064;-66
2022/08/20 02:05:59;;;;;;;8.18;4.07;;;;;;;21.46;94.97;100667.50;5043758;28;20095;-66
2022/08/20 02:08:25;;;;;;;10.90;4.90;;;;;;;21.44;94.93;100669.13;5049454;28;20029;-68
2022/08/20 02:10:50;;;;;;;6.78;3.92;;;;;;;21.47;94.45;100668.25;5049422;28;20179;-66
2022/08/20 02:13:16;;;;;;;6.85;4.13;;;;;;;21.50;94.72;100661.94;5046278;28;20030;-67
2022/08/20 02:15:42;;;;;;;9.15;4.35;;;;;;;21.48;94.68;100665.09;5048812;28;20135;-67
2022/08/20 02:18:13;;;;;;;7.97;4.03;;;;;;;21.44;95.12;100667.16;5049284;28;20428;-67
2022/08/20 02:20:40;;;;;;;7.78;4.45;;;;;;;21.46;95.38;100662.03;5049375;28;20044;-66
2022/08/20 02:23:06;;;;;;;9.10;4.20;;;;;;;21.51;95.17;100664.25;5038846;28;20037;-68
2022/08/20 02:25:35;;;;;;;7.97;4.05;;;;;;;21.45;94.39;100654.97;5045703;28;20033;-66
2022/08/20 02:28:04;;;;;;;8.13;4.18;;;;;;;21.51;94.92;100653.28;5048945;28;20025;-66
2022/08/20 02:30:33;;;;;;;7.95;3.63;;;;;;;21.49;94.68;100654.91;5048658;28;20090;-66
2022/08/20 02:33:05;;;;;;;7.55;4.18;;;;;;;21.42;95.18;100661.34;5042597;28;20036;-66
2022/08/20 02:35:31;;;;;;;7.00;3.67;;;;;;;21.58;94.19;100669.53;5049525;28;20061;-66
2022/08/20 02:37:57;;;;;;;7.05;4.25;;;;;;;21.56;94.48;100668.44;5042549;28;20029;-66
2022/08/20 02:40:25;;;;;;;6.20;3.83;;;;;;;21.56;94.28;100660.97;5048130;28;20044;-67
2022/08/20 02:42:51;;;;;;;9.50;3.97;;;;;;;21.58;93.89;100664.06;5048248;28;20036;-67
2022/08/20 02:45:18;;;;;;;8.93;4.10;;;;;;;21.64;93.56;100660.81;5044415;28;20541;-66
2022/08/20 02:47:45;;;;;;;8.90;4.15;;;;;;;21.61;92.70;100664.41;5047721;28;20102;-66
2022/08/20 02:50:13;;;;;;;6.82;3.65;;;;;;;21.58;92.83;100668.00;5048744;28;20118;-66
2022/08/20 02:52:39;;;;;;;7.40;4.38;;;;;;;21.55;93.34;100669.63;5047693;28;20068;-67
2022/08/20 02:55:05;;;;;;;6.00;3.15;;;;;;;21.56;93.43;100679.41;5051358;28;20074;-67
2022/08/20 02:57:32;;;;;;;4.90;3.17;;;;;;;21.55;93.41;100670.41;5052036;28;20385;-66
2022/08/20 02:59:57;;;;;;;6.68;3.50;;;;;;;21.50;93.32;100659.94;5053120;28;20381;-67
2022/08/20 03:02:23;;;;;;;7.65;4.05;;;;;;;21.44;93.84;100658.16;5051315;28;20049;-67
2022/08/20 03:04:49;;;;;;;5.78;3.40;;;;;;;21.48;94.25;100656.88;5053055;28;20112;-67
2022/08/20 03:07:14;;;;;;;6.75;3.80;;;;;;;21.49;94.00;100660.38;5051681;28;20448;-66
2022/08/20 03:09:40;;;;;;;6.53;3.50;;;;;;;21.44;93.86;100664.41;5031929;28;20474;-67
2022/08/20 03:12:06;;;;;;;5.93;3.58;;;;;;;21.42;94.06;100657.81;5052842;28;20032;-66
2022/08/20 03:14:32;;;;;;;6.18;3.80;;;;;;;21.45;94.10;100660.47;5034132;28;20421;-66
2022/08/20 03:16:58;;;;;;;6.82;3.72;;;;;;;21.45;94.18;100648.72;5050490;28;20040;-67
2022/08/20 03:19:24;;;;;;;5.93;3.33;;;;;;;21.44;94.11;100664.41;5049090;28;20049;-67
2022/08/20 03:21:50;;;;;;;6.53;3.70;;;;;;;21.41;94.44;100665.25;5052414;28;20064;-66
2022/08/20 03:24:15;;;;;;;6.78;3.67;;;;;;;21.39;94.24;100667.66;5050391;28;20470;-67
2022/08/20 03:26:41;;;;;;;5.18;3.45;;;;;;;21.36;94.34;100668.53;5045560;28;20041;-66
2022/08/20 03:29:07;;;;;;;9.30;4.13;;;;;;;21.36;94.66;100670.47;5050234;28;20033;-66
2022/08/20 03:31:32;;;;;;;6.72;3.55;;;;;;;21.33;94.65;100672.09;5051957;28;20035;-66
2022/08/20 03:33:58;;;;;;;6.35;3.97;;;;;;;21.38;94.70;100671.59;5047954;28;20029;-66
2022/08/20 03:36:25;;;;;;;7.30;4.15;;;;;;;21.38;94.84;100679.84;5043925;28;20060;-66
2022/08/20 03:38:51;;;;;;;6.78;3.42;;;;;;;21.43;94.93;100678.53;5048679;28;20025;-66
2022/08/20 03:41:17;;;;;;;5.82;3.20;;;;;;;21.38;95.33;100671.59;5052006;28;20043;-66
2022/08/20 03:43:43;;;;;;;6.25;3.67;;;;;;;21.45;95.20;100673.38;5047797;28;20515;-66
2022/08/20 03:46:09;;;;;;;8.77;4.00;;;;;;;21.52;94.28;100679.47;5042726;28;20021;-66
2022/08/20 03:48:35;;;;;;;7.40;4.10;;;;;;;21.50;94.37;100687.34;5049976;28;20048;-66
2022/08/20 03:51:01;;;;;;;7.78;4.20;;;;;;;21.43;94.93;100686.75;5052358;28;20174;-67
2022/08/20 03:53:30;;;;;;;8.73;4.13;;;;;;;21.41;94.92;100681.69;5050526;28;20092;-66
2022/08/20 03:56:03;;;;;;;7.72;3.13;;;;;;;21.47;94.28;100684.69;5032596;28;20041;-66
2022/08/20 03:58:30;;;;;;;5.57;3.53;;;;;;;21.49;94.09;100694.06;5052100;28;20115;-66
2022/08/20 04:00:56;;;;;;;8.05;4.07;;;;;;;21.54;93.71;100696.25;5052099;28;20040;-67
2022/08/20 04:03:23;;;;;;;5.80;3.28;;;;;;;21.47;94.10;100688.22;5045349;28;20147;-66
2022/08/20 04:05:49;;;;;;;7.05;3.33;;;;;;;21.42;94.68;100702.44;5048088;28;20060;-67
2022/08/20 04:08:21;;;;;;;7.95;3.72;;;;;;;21.44;94.91;100702.78;5051434;28;20032;-67
2022/08/20 04:10:48;;;;;;;7.47;4.00;;;;;;;21.44;94.91;100694.56;5051405;28;20078;-67
2022/08/20 04:13:16;;;;;;;5.80;3.42;;;;;;;21.43;95.35;100706.72;5046968;28;20041;-67
2022/08/20 04:15:44;;;;;;;9.63;3.65;;;;;;;21.28;96.38;100705.50;5050702;28;20017;-67
2022/08/20 04:18:10;;;;;;;5.95;3.38;;;;;;;21.30;96.63;100707.81;5051343;28;20064;-66
2022/08/20 04:20:40;;;;;;;7.47;3.47;;;;;;;21.39;96.10;100705.25;5045930;28;20056;-66
2022/08/20 04:23:07;;;;;;;6.88;3.20;;;;;;;21.34;96.24;100709.28;5052401;28;20450;-66
2022/08/20 04:25:34;;;;;;;8.13;3.50;;;;;;;21.35;96.63;100705.34;5050714;28;20276;-66
2022/08/20 04:28:02;;;;;;;6.50;3.80;;;;;;;21.41;96.21;100705.59;5046223;28;20032;-66
2022/08/20 04:30:28;;;;;;;8.00;3.83;;;;;;;21.35;95.25;100704.59;5047791;28;20574;-67
2022/08/20 04:32:54;;;;;;;6.45;3.42;;;;;;;21.33;95.20;100705.00;5051394;28;20028;-67
2022/08/20 04:37:57;;;;;;;7.32;3.38;;;;;;;21.29;94.65;100712.50;5009354;28;19928;-68
2022/08/20 04:43:06;;;;;;;7.63;3.20;;;;;;;21.43;94.77;100703.97;5012670;28;20087;-68
2022/08/20 04:45:52;;;;;;;5.55;3.13;;;;;;;21.49;94.32;100713.22;5011560;28;20112;-68
2022/08/20 04:48:20;;;;;;;5.85;3.25;;;;;;;21.57;94.35;100711.09;4947835;29;20598;-68
2022/08/20 04:50:45;;;;;;;10.18;3.15;;;;;;;21.58;94.12;100712.66;4951373;29;20051;-68
2022/08/20 04:53:13;;;;;;;7.43;3.38;;;;;;;21.56;94.01;100704.09;4951547;29;20451;-68
2022/08/20 04:56:00;;;;;;;7.28;3.53;;;;;;;21.57;93.62;100711.09;4950050;29;20129;-68
2022/08/20 04:58:35;;;;;;;6.53;3.92;;;;;;;21.64;93.85;100712.91;4857462;29;20049;-68
2022/08/20 05:01:04;;;;;;;6.47;3.33;;;;;;;21.74;92.97;100709.16;4854947;29;20132;-68
2022/08/20 05:03:30;;;;;;;10.07;3.83;;;;;;;21.70;93.64;100714.69;4856376;29;20064;-68
2022/08/20 05:05:56;;;;;;;6.85;3.55;;;;;;;21.71;93.82;100710.75;4856505;29;20056;-68
2022/08/20 05:08:24;;;;;;;5.93;3.40;;;;;;;21.81;93.26;100715.25;4857272;29;20546;-68
2022/08/20 05:10:51;;;;;;;6.53;3.55;;;;;;;21.87;92.77;100719.03;4857263;29;20042;-68
2022/08/20 05:13:17;;;;;;;9.70;4.25;;;;;;;21.83;93.69;100712.84;4857342;29;20097;-68
2022/08/20 05:15:44;;;;;;;9.63;4.03;;;;;;;21.90;93.40;100715.41;4856203;29;20052;-68
2022/08/20 05:18:11;;;;;;;7.05;4.00;;;;;;;21.94;93.60;100723.53;4856181;29;20121;-68
2022/08/20 05:20:39;;;;;;;9.20;4.07;;;;;;;21.97;93.72;100726.19;4856711;29;20045;-68
2022/08/20 05:23:08;;;;;;;9.88;4.40;;;;;;;22.00;93.83;100727.31;4857140;29;20049;-68
2022/08/20 05:25:35;;;;;;;9.15;3.80;;;;;;;22.00;94.27;100716.34;4890191;29;20067;-68
2022/08/20 05:28:19;;;;;;;13.65;4.05;;;;;;;22.04;93.64;100723.28;4911730;29;20075;-68
2022/08/20 05:30:45;;;;;;;10.73;4.47;;;;;;;21.98;94.09;100721.47;4910509;29;20044;-68
2022/08/20 05:33:16;;;;;;;9.07;3.88;;;;;;;22.01;94.59;100728.88;4912092;29;20359;-68
2022/08/20 05:35:43;;;;;;;10.82;3.55;;;;;;;22.04;94.34;100731.50;4971211;28;20121;-68
2022/08/20 05:38:11;;;;;;;11.50;4.30;;;;;;;22.05;94.70;100726.78;4991957;28;20044;-68
2022/08/20 05:40:38;;;;;;;8.85;3.95;;;;;;;22.13;94.12;100725.41;5009870;28;20034;-68
2022/08/20 05:43:04;;;;;;;9.65;4.20;;;;;;;22.16;94.59;100730.03;5010437;28;20026;-68
2022/08/20 05:45:31;;;;;;;9.13;4.68;;;;;;;22.18;94.45;100722.16;5008973;28;20524;-68
2022/08/20 05:47:57;;;;;;;8.65;4.20;;;;;;;22.19;94.40;100729.94;5009389;28;20494;-68
2022/08/20 05:50:23;;;;;;;8.50;3.85;;;;;;;22.18;95.19;100733.13;5009785;28;20034;-68
2022/08/20 05:52:49;;;;;;;12.55;4.07;;;;;;;22.10;96.21;100729.00;5006703;28;20075;-68
2022/08/20 05:55:15;;;;;;;10.27;4.53;;;;;;;22.09;96.93;100730.97;5010105;28;20030;-68
2022/08/20 05:57:40;;;;;;;6.93;3.80;;;;;;;22.24;96.50;100725.91;5009430;28;20091;-68
2022/08/20 06:00:10;;;;;;;11.68;4.50;;;;;;;22.25;96.50;100732.94;5005982;28;20029;-68
2022/08/20 06:05:23;;;;;;;9.02;4.10;;;;;;;22.28;97.39;100738.31;5008782;28;20541;-68
2022/08/20 06:07:49;;;;;;;7.22;3.53;;;;;;;22.38;96.83;100729.03;5008537;28;20026;-68
2022/08/20 06:10:15;;;;;;;7.65;3.40;;;;;;;22.61;97.01;100736.28;5009409;28;20383;-68
2022/08/20 06:12:43;;;;;;;8.05;3.85;;;;;;;22.77;96.22;100738.97;5001837;28;20037;-68
2022/08/20 06:15:09;;;;;;;8.52;3.65;;;;;;;22.95;95.83;100735.72;4997628;28;20120;-68
2022/08/20 06:17:34;;;;;;;9.20;3.63;;;;;;;23.05;94.99;100729.91;5004078;28;20638;-68
2022/08/20 06:20:05;;;;;;;8.80;4.05;;;;;;;23.12;94.31;100739.91;5008315;28;20105;-67
2022/08/20 06:22:30;;;;;;;5.93;3.25;;;;;;;23.15;93.56;100739.81;5010516;28;20046;-67
2022/08/20 06:24:56;;;;;;;7.22;3.53;;;;;;;23.07;93.90;100732.97;5007040;28;20543;-67
2022/08/20 06:27:22;;;;;;;5.43;2.83;;;;;;;23.10;94.24;100734.88;5009018;28;20041;-68
2022/08/20 06:29:48;;;;;;;9.30;3.50;;;;;;;23.17;94.06;100740.13;5012275;28;20087;-68
2022/08/20 06:32:14;;;;;;;4.97;2.45;;;;;;;23.21;93.89;100749.06;5013424;28;20034;-67
2022/08/20 06:34:39;;;;;;;7.13;3.70;;;;;;;23.15;94.59;100733.56;5009987;28;20091;-68
2022/08/20 06:37:26;;;;;;;6.85;3.20;;;;;;;23.21;94.67;100748.28;5012576;28;20061;-67
2022/08/20 06:39:52;;;;;;;8.68;3.20;;;;;;;23.27;94.17;100746.53;5012607;28;20149;-67
2022/08/20 06:42:19;;;;;;;5.10;2.45;;;;;;;23.33;94.13;100741.28;4992942;28;20013;-67
2022/08/20 06:44:49;;;;;;;5.18;2.85;;;;;;;23.42;94.10;100746.91;5012023;28;20036;-68
2022/08/20 06:47:18;;;;;;;5.95;2.75;;;;;;;23.49;93.91;100741.94;5002703;28;20112;-68
2022/08/20 06:49:43;;;;;;;4.07;2.47;;;;;;;23.54;93.74;100754.41;5011991;28;20230;-68
2022/08/20 06:52:09;;;;;;;5.35;2.75;;;;;;;23.51;93.85;100755.25;5010685;28;20038;-68
2022/08/20 06:54:34;;;;;;;6.15;2.88;;;;;;;23.50;93.71;100756.47;5009546;28;20041;-68
2022/08/20 06:57:01;;;;;;;10.25;3.08;;;;;;;23.48;93.53;100756.91;5011608;28;20394;-69
2022/08/20 06:59:27;;;;;;;5.45;2.72;;;;;;;23.51;93.22;100758.00;5014002;28;20521;-68
2022/08/20 07:01:55;;;;;;;4.55;2.60;;;;;;;23.50;92.61;100759.22;5013208;28;20034;-67
2022/08/20 07:04:25;;;;;;;6.03;3.28;;;;;;;23.47;92.71;100754.59;5008422;28;20379;-68
2022/08/20 07:06:56;;;;;;;5.93;3.17;;;;;;;23.40;92.34;100760.31;5011945;28;20034;-67
2022/08/20 07:09:22;;;;;;;5.07;2.58;;;;;;;23.43;92.78;100762.19;5012586;28;20088;-68
2022/08/20 07:11:48;;;;;;;5.43;2.88;;;;;;;23.51;92.54;100767.03;5011995;28;20044;-68
2022/08/20 07:14:17;;;;;;;5.25;2.95;;;;;;;23.58;92.29;100771.53;5011002;28;20112;-67
2022/08/20 07:16:45;;;;;;;6.53;2.40;;;;;;;23.68;91.71;100768.47;5011827;28;20113;-67
2022/08/20 07:19:12;;;;;;;5.28;2.38;;;;;;;23.77;91.42;100774.06;5011332;28;20057;-67
2022/08/20 07:21:39;;;;;;;4.65;2.42;;;;;;;23.87;91.21;100780.41;5008543;28;20041;-67
2022/08/20 07:24:05;;;;;;;5.15;2.67;;;;;;;23.98;90.59;100780.88;5009866;28;20069;-67
2022/08/20 07:26:31;;;;;;;5.53;2.80;;;;;;;24.04;90.15;100777.13;5011081;28;20061;-67
2022/08/20 07:28:56;;;;;;;2.95;2.08;;;;;;;24.10;89.65;100789.13;4992247;28;20037;-67
2022/08/20 07:34:07;;;;;;;5.53;2.50;;;;;;;24.20;89.23;100794.72;5011293;28;20113;-67
2022/08/20 07:36:33;;;;;;;5.22;2.67;;;;;;;24.23;89.08;100793.84;5010785;28;20108;-68
2022/08/20 07:39:00;;;;;;;4.63;2.60;;;;;;;24.26;88.85;100793.72;5006978;28;21742;-67
2022/08/20 07:41:26;;;;;;;3.42;1.98;;;;;;;24.28;88.55;100788.53;5008022;28;20030;-67
2022/08/20 07:43:51;;;;;;;4.32;2.17;;;;;;;24.30;88.56;100797.13;5012689;28;20030;-67
2022/08/20 07:46:18;;;;;;;3.60;2.20;;;;;;;24.36;88.21;100786.31;5012095;28;20168;-68
2022/08/20 07:48:48;;;;;;;3.88;2.33;;;;;;;24.35;87.36;100799.28;5003797;28;20050;-68
2022/08/20 07:51:19;;;;;;;4.10;2.28;;;;;;;24.37;87.45;100794.09;4995020;28;20045;-67
2022/08/20 07:53:51;;;;;;;2.45;1.65;;;;;;;24.44;87.46;100790.34;5008522;28;20133;-68
2022/08/20 07:56:20;;;;;;;3.25;1.98;;;;;;;24.55;87.77;100805.28;5005837;28;20038;-68
2022/08/20 07:58:49;;;;;;;4.25;2.28;;;;;;;24.60;87.05;100801.22;5005302;28;20175;-67
2022/08/20 08:01:20;;;;;;;3.30;2.15;;;;;;;24.67;86.93;100800.94;5005875;28;20548;-68
2022/08/20 08:03:46;;;;;;;2.92;1.85;;;;;;;24.79;86.70;100808.44;5009096;28;20117;-68
2022/08/20 08:06:12;;;;;;;2.35;1.40;;;;;;;24.91;86.20;100802.84;4992760;28;20120;-69
2022/08/20 08:08:39;;;;;;;2.72;1.52;;;;;;;25.06;85.83;100808.63;5007715;28;20041;-68
2022/08/20 08:11:06;;;;;;;2.72;1.80;;;;;;;25.29;85.17;100810.13;4993032;28;20087;-68
2022/08/20 08:13:38;;;;;;;2.95;1.70;;;;;;;25.51;84.36;100819.16;5009299;28;20108;-68
2022/08/20 08:16:06;;;;;;;2.78;1.70;;;;;;;25.68;82.70;100828.75;5010551;28;20025;-68
2022/08/20 08:19:01;;;;;;;2.20;1.55;;;;;;;25.82;81.91;100817.16;5008522;28;20141;-68
2022/08/20 08:21:43;;;;;;;2.88;1.38;;;;;;;25.89;79.57;100817.63;4997891;28;20394;-68
2022/08/20 08:24:19;;;;;;;1.65;1.45;;;;;;;26.02;78.59;100811.97;5007564;28;20389;-68
2022/08/20 08:26:48;;;;;;;4.28;1.33;;;;;;;26.05;77.18;100813.84;5017053;28;20041;-69
2022/08/20 08:29:15;;;;;;;3.70;1.38;;;;;;;26.11;77.38;100817.56;5008588;28;20468;-68
2022/08/20 08:31:41;;;;;;;1.52;1.17;;;;;;;26.18;77.25;100828.31;5011462;28;20030;-68
2022/08/20 08:34:07;;;;;;;2.30;1.23;;;;;;;26.24;76.66;100815.44;5010861;28;20401;-69
2022/08/20 08:36:48;;;;;;;2.53;1.17;;;;;;;26.19;76.06;100818.78;4991667;28;20037;-69
2022/08/20 08:39:15;;;;;;;2.28;1.33;;;;;;;26.23;76.26;100813.16;5007757;28;20034;-70
2022/08/20 08:41:47;;;;;;;1.42;1.23;;;;;;;26.28;75.72;100810.53;5010472;28;20029;-69
2022/08/20 08:44:23;;;;;;;2.70;1.27;;;;;;;26.37;76.35;100813.31;5010248;28;20042;-69
2022/08/20 08:46:56;;;;;;;1.83;1.10;;;;;;;26.48;74.99;100816.38;5006449;28;20038;-68
2022/08/20 08:49:27;;;;;;;1.88;1.38;;;;;;;26.57;74.28;100821.16;5008335;28;20386;-70
2022/08/20 08:51:57;;;;;;;1.80;1.35;;;;;;;26.59;74.27;100818.69;5010967;28;20394;-69
2022/08/20 08:54:27;;;;;;;1.17;1.02;;;;;;;26.51;73.74;100823.00;5000337;28;20050;-69
2022/08/20 08:56:53;;;;;;;4.75;1.00;;;;;;;26.40;73.84;100822.69;5009490;28;20045;-69
2022/08/20 08:59:24;;;;;;;1.55;1.10;;;;;;;26.40;73.13;100831.72;5010510;28;20022;-69
2022/08/20 09:01:53;;;;;;;;;;;;;;;26.38;73.55;100834.19;4993557;28;20052;-69
2022/08/20 09:04:30;;;;;;;2.28;1.08;;;;;;;26.64;73.43;100834.66;4973442;28;20433;-69
2022/08/20 09:06:57;;;;;;;1.00;0.60;;;;;;;27.02;72.71;100828.69;4992251;28;20037;-69
2022/08/20 09:09:29;;;;;;;2.85;0.90;;;;;;;27.39;69.63;100828.16;5006209;28;20091;-70
2022/08/20 09:12:02;;;;;;;2.85;0.80;;;;;;;27.58;67.87;100839.97;4997772;28;20109;-68
2022/08/20 09:14:27;;;;;;;1.88;0.82;;;;;;;28.01;66.78;100841.50;4997730;28;20049;-69
2022/08/20 09:16:56;;;;;;;1.23;0.98;;;;;;;28.26;65.58;100836.25;5011061;28;20018;-69
2022/08/20 09:19:21;;;;;;;0.80;0.70;;;;;;;28.24;63.33;100832.44;5011316;28;20037;-69
2022/08/20 09:21:47;;;;;;;1.35;0.90;;;;;;;28.16;62.99;100834.78;5011870;28;20552;-69
2022/08/20 09:24:12;;;;;;;1.08;0.68;;;;;;;28.03;62.66;100842.53;4994384;28;20045;-69
2022/08/20 09:26:38;;;;;;;0.80;0.77;;;;;;;27.92;63.82;100844.25;4990225;28;20393;-68
2022/08/20 09:29:03;;;;;;;1.70;0.70;;;;;;;27.77;63.60;100838.66;4995425;28;20163;-69
2022/08/20 09:31:29;;;;;;;1.55;0.80;;;;;;;27.65;63.79;100839.63;5011109;28;20521;-69
2022/08/20 09:33:54;;;;;;;1.55;0.80;;;;;;;27.57;64.43;100833.66;4996737;28;20040;-68
2022/08/20 09:36:20;;;;;;;2.38;0.98;;;;;;;27.43;63.33;100839.06;5005131;28;20109;-69
2022/08/20 09:38:45;;;;;;;0.82;0.75;;;;;;;27.37;64.14;100840.94;4997047;28;20384;-69
2022/08/20 09:41:11;;;;;;;1.70;0.80;;;;;;;27.32;64.28;100836.81;5010553;28;20038;-68
2022/08/20 09:43:37;;;;;;;0.88;0.70;;;;;;;27.33;64.91;100840.34;5000486;28;20034;-69
2022/08/20 09:46:02;;;;;;;0.70;0.68;;;;;;;27.28;65.07;100841.69;5002427;28;20127;-69
2022/08/20 09:48:27;;;;;;;0.60;0.60;;;;;;;27.23;65.09;100838.78;4991687;28;20558;-71
2022/08/20 09:50:53;;;;;;;0.73;0.68;;;;;;;27.15;64.86;100840.34;5004688;28;20032;-68
2022/08/20 09:53:20;;;;;;;1.17;0.80;;;;;;;27.01;63.95;100836.22;4991429;28;20073;-68
2022/08/20 09:55:50;;;;;;;1.35;0.73;;;;;;;27.09;63.46;100839.44;5005996;28;20034;-68
2022/08/20 09:58:31;;;;;;;1.65;0.73;;;;;;;27.11;63.96;100828.66;4995079;28;20027;-69
2022/08/20 10:00:57;;;;;;;;;;;;;;;27.13;62.42;100837.28;4990224;28;20045;-69
2022/08/20 10:03:23;;;;;;;2.50;0.80;;;;;;;27.27;61.56;100840.19;5004938;28;19924;-68
2022/08/20 10:05:48;;;;;;;0.90;0.47;;;;;;;27.37;61.04;100836.16;5005242;28;20026;-68
2022/08/20 10:08:14;;;;;;;0.90;0.73;;;;;;;27.47;59.92;100842.44;5003907;28;20341;-68
2022/08/20 10:10:40;;;;;;;0.63;0.50;;;;;;;27.61;60.09;100841.78;5000190;28;20423;-69
2022/08/20 10:13:05;;;;;;;2.35;0.80;;;;;;;27.82;59.54;100843.53;5007137;28;20477;-69
2022/08/20 10:15:31;;;;;;;0.90;0.70;;;;;;;28.02;60.44;100843.03;4998012;28;20474;-70
2022/08/20 10:17:56;;;;;;;1.95;0.70;;;;;;;28.17;59.47;100850.16;4997844;28;20022;-68
2022/08/20 10:20:23;;;;;;;1.08;0.80;;;;;;;28.37;58.25;100828.19;5002528;28;20030;-68
2022/08/20 10:23:10;;;;;;;2.15;0.80;;;;;;;28.42;59.50;100841.38;5000904;28;20461;-69
2022/08/20 10:25:37;;;;;;;0.52;0.52;;;;;;;28.43;58.54;100840.16;4987586;28;20045;-68
2022/08/20 10:28:03;;;;;;;1.05;0.80;;;;;;;28.46;57.94;100844.75;5007989;28;20529;-68
2022/08/20 10:30:28;;;;;;;2.63;0.80;;;;;;;28.46;58.39;100841.19;5002093;28;20038;-69
2022/08/20 10:32:54;;;;;;;1.45;0.50;;;;;;;28.44;57.86;100850.00;5000004;28;20092;-69
2022/08/20 10:35:20;;;;;;;1.60;0.60;;;;;;;28.41;57.43;100848.19;5002044;28;20053;-69
2022/08/20 10:37:45;;;;;;;1.98;0.77;;;;;;;28.46;56.70;100853.06;5040152;22;20056;-67
2022/08/20 10:40:14;;;;;;;0.85;0.65;;;;;;;28.45;56.11;100850.75;5024340;28;20033;-67
2022/08/20 10:42:41;;;;;;;0.50;0.50;;;;;;;28.43;55.70;100862.34;5027004;28;20100;-68
2022/08/20 10:45:07;;;;;;;0.65;0.60;;;;;;;28.38;56.04;100853.88;5027759;28;20029;-68
2022/08/20 10:47:32;;;;;;;0.70;0.57;;;;;;;28.41;57.09;100850.19;5021842;28;20029;-68
2022/08/20 10:50:00;;;;;;;1.65;0.40;;;;;;;28.45;57.78;100848.00;5018022;28;20052;-67
2022/08/20 10:52:27;;;;;;;1.77;1.00;;;;;;;28.55;58.84;100862.59;5024503;28;20041;-68
2022/08/20 10:54:53;;;;;;;1.02;0.68;;;;;;;28.50;56.40;100861.97;5007324;28;20486;-68
2022/08/20 10:57:24;;;;;;;3.25;0.88;;;;;;;28.60;55.71;100859.91;5022332;28;20434;-67
2022/08/20 10:59:51;;;;;;;0.75;0.55;;;;;;;28.67;55.97;100853.25;5025560;28;20044;-70
2022/08/20 11:02:18;;;;;;;5.93;1.10;;;;;;;28.76;55.70;100855.94;5021320;28;20037;-70
2022/08/20 11:04:44;;;;;;;1.50;0.68;;;;;;;28.83;54.06;100858.34;5020472;28;20096;-70
2022/08/20 11:07:12;;;;;;;1.08;0.52;;;;;;;28.89;52.93;100859.22;5020479;28;20481;-67
2022/08/20 11:09:38;;;;;;;1.10;0.73;;;;;;;29.24;52.65;100855.38;5019568;28;20120;-66
2022/08/20 11:12:03;;;;;;;0.57;0.57;;;;;;;29.26;51.72;100858.44;5025041;28;20108;-68
2022/08/20 11:14:29;;;;;;;0.45;0.38;;;;;;;29.38;52.85;100867.72;5024395;28;20071;-67
2022/08/20 11:16:54;;;;;;;1.27;0.70;;;;;;;29.42;52.74;100874.59;5026362;28;20471;-66
2022/08/20 11:19:20;;;;;;;0.47;0.47;;;;;;;29.45;52.42;100875.66;5032265;28;20045;-67
2022/08/20 11:21:45;;;;;;;1.50;0.55;;;;;;;29.38;52.80;100884.38;5030656;28;20108;-68
2022/08/20 11:24:10;;;;;;;1.75;0.70;;;;;;;29.33;53.40;100885.03;5032441;28;20108;-67
2022/08/20 11:26:36;;;;;;;1.27;0.60;;;;;;;29.21;52.83;100881.28;5022385;28;20029;-68
2022/08/20 11:29:02;;;;;;;0.70;0.45;;;;;;;29.10;53.02;100881.06;5028657;28;20030;-67
2022/08/20 11:31:27;;;;;;;3.08;0.60;;;;;;;29.02;54.12;100879.91;5028160;28;20143;-67
2022/08/20 11:33:52;;;;;;;1.50;0.70;;;;;;;28.97;53.60;100865.94;5027549;28;20648;-66
2022/08/20 11:36:18;;;;;;;0.73;0.55;;;;;;;28.92;54.32;100861.81;5028405;28;20848;-69
2022/08/20 11:38:43;;;;;;;2.42;0.60;;;;;;;28.94;54.30;100864.88;5027899;28;20512;-66
2022/08/20 11:41:09;;;;;;;1.48;0.60;;;;;;;28.96;53.41;100864.41;5021595;28;20434;-66